sensor_id;sensor_type;location;lat;lon;timestamp;temperature;humidity
7936;DHT22;4013;49.744;8.118;2023-05-16T00:02:07;13.40;99.90
7936;DHT22;4013;49.744;8.118;2023-05-16T00:04:35;13.50;99.90
7936;DHT22;4013;49.744;8.118;2023-05-16T00:07:02;13.50;99.90
7936;DHT22;4013;49.744;8.118;2023-05-16T00:09:30;13.50;99.90
7936;DHT22;4013;49.744;8.118;2023-05-16T00:11:57;13.40;99.90
7936;DHT22;4013;49.744;8.118;2023-05-16T00:14:24;13.40;99.90
7936;DHT22;4013;49.744;8.118;2023-05-16T00:16:52;13.40;99.90
7936;DHT22;4013;49.744;8.118;2023-05-16T00:19:19;13.40;99.90
7936;DHT22;4013;49.744;8.118;2023-05-16T00:21:46;13.40;99.90
7936;DHT22;4013;49.744;8.118;2023-05-16T00:24:13;13.40;99.90
7936;DHT22;4013;49.744;8.118;2023-05-16T00:26:41;13.30;99.90
7936;DHT22;4013;49.744;8.118;2023-05-16T00:29:08;13.40;99.90
7936;DHT22;4013;49.744;8.118;2023-05-16T00:31:35;13.30;99.90
7936;DHT22;4013;49.744;8.118;2023-05-16T00:34:02;13.30;99.90
7936;DHT22;4013;49.744;8.118;2023-05-16T00:36:29;13.30;99.90
7936;DHT22;4013;49.744;8.118;2023-05-16T00:38:56;13.30;99.90
7936;DHT22;4013;49.744;8.118;2023-05-16T00:41:23;13.20;99.90
7936;DHT22;4013;49.744;8.118;2023-05-16T00:43:52;13.20;99.90
7936;DHT22;4013;49.744;8.118;2023-05-16T00:46:19;13.20;99.90
7936;DHT22;4013;49.744;8.118;2023-05-16T00:48:46;13.20;99.90
7936;DHT22;4013;49.744;8.118;2023-05-16T00:51:13;13.20;99.90
7936;DHT22;4013;49.744;8.118;2023-05-16T00:53:40;13.20;99.90
7936;DHT22;4013;49.744;8.118;2023-05-16T00:56:07;13.10;99.90
7936;DHT22;4013;49.744;8.118;2023-05-16T00:58:34;13.10;99.90
7936;DHT22;4013;49.744;8.118;2023-05-16T01:01:04;13.10;99.90
7936;DHT22;4013;49.744;8.118;2023-05-16T01:03:31;13.10;99.90
7936;DHT22;4013;49.744;8.118;2023-05-16T01:05:58;13.10;99.90
7936;DHT22;4013;49.744;8.118;2023-05-16T01:08:25;13.00;99.90
7936;DHT22;4013;49.744;8.118;2023-05-16T01:10:59;13.00;99.90
7936;DHT22;4013;49.744;8.118;2023-05-16T01:13:35;12.90;99.90
7936;DHT22;4013;49.744;8.118;2023-05-16T01:16:11;12.90;99.90
7936;DHT22;4013;49.744;8.118;2023-05-16T01:18:42;12.90;99.90
7936;DHT22;4013;49.744;8.118;2023-05-16T01:21:17;12.80;99.90
7936;DHT22;4013;49.744;8.118;2023-05-16T01:23:51;12.80;99.90
7936;DHT22;4013;49.744;8.118;2023-05-16T01:26:21;12.80;99.90
7936;DHT22;4013;49.744;8.118;2023-05-16T01:28:49;12.80;99.90
7936;DHT22;4013;49.744;8.118;2023-05-16T01:31:17;12.70;99.90
7936;DHT22;4013;49.744;8.118;2023-05-16T01:33:45;12.70;99.90
7936;DHT22;4013;49.744;8.118;2023-05-16T01:36:19;12.60;99.90
7936;DHT22;4013;49.744;8.118;2023-05-16T01:39:00;12.50;99.90
7936;DHT22;4013;49.744;8.118;2023-05-16T01:41:34;12.50;99.90
7936;DHT22;4013;49.744;8.118;2023-05-16T01:44:16;12.60;99.90
7936;DHT22;4013;49.744;8.118;2023-05-16T01:46:45;12.60;99.90
7936;DHT22;4013;49.744;8.118;2023-05-16T01:49:15;12.60;99.90
7936;DHT22;4013;49.744;8.118;2023-05-16T01:51:46;12.60;99.90
7936;DHT22;4013;49.744;8.118;2023-05-16T01:54:17;12.60;99.90
7936;DHT22;4013;49.744;8.118;2023-05-16T01:56:51;12.60;99.90
7936;DHT22;4013;49.744;8.118;2023-05-16T01:59:19;12.60;99.90
7936;DHT22;4013;49.744;8.118;2023-05-16T02:01:47;12.70;99.90
7936;DHT22;4013;49.744;8.118;2023-05-16T02:04:14;12.60;99.90
7936;DHT22;4013;49.744;8.118;2023-05-16T02:06:41;12.60;99.90
7936;DHT22;4013;49.744;8.118;2023-05-16T02:09:08;12.60;99.90
7936;DHT22;4013;49.744;8.118;2023-05-16T02:11:35;12.50;99.90
7936;DHT22;4013;49.744;8.118;2023-05-16T02:14:03;12.50;99.90
7936;DHT22;4013;49.744;8.118;2023-05-16T02:16:30;12.50;99.90
7936;DHT22;4013;49.744;8.118;2023-05-16T02:18:57;12.60;99.90
7936;DHT22;4013;49.744;8.118;2023-05-16T02:21:24;12.60;99.90
7936;DHT22;4013;49.744;8.118;2023-05-16T02:23:51;12.40;99.90
7936;DHT22;4013;49.744;8.118;2023-05-16T02:26:18;12.50;99.90
7936;DHT22;4013;49.744;8.118;2023-05-16T02:28:45;12.50;99.90
7936;DHT22;4013;49.744;8.118;2023-05-16T02:31:26;12.50;99.90
7936;DHT22;4013;49.744;8.118;2023-05-16T02:33:53;12.50;99.90
7936;DHT22;4013;49.744;8.118;2023-05-16T02:36:20;12.50;99.90
7936;DHT22;4013;49.744;8.118;2023-05-16T02:38:47;12.50;99.90
7936;DHT22;4013;49.744;8.118;2023-05-16T02:41:14;12.40;99.90
7936;DHT22;4013;49.744;8.118;2023-05-16T02:43:41;12.30;99.90
7936;DHT22;4013;49.744;8.118;2023-05-16T02:46:20;12.30;99.90
7936;DHT22;4013;49.744;8.118;2023-05-16T02:48:48;12.30;99.90
7936;DHT22;4013;49.744;8.118;2023-05-16T02:51:15;12.30;99.90
7936;DHT22;4013;49.744;8.118;2023-05-16T02:53:42;12.20;99.90
7936;DHT22;4013;49.744;8.118;2023-05-16T02:56:09;12.20;99.90
7936;DHT22;4013;49.744;8.118;2023-05-16T02:58:36;12.20;99.90
7936;DHT22;4013;49.744;8.118;2023-05-16T03:01:03;12.20;99.90
7936;DHT22;4013;49.744;8.118;2023-05-16T03:03:30;12.20;99.90
7936;DHT22;4013;49.744;8.118;2023-05-16T03:05:59;12.10;99.90
7936;DHT22;4013;49.744;8.118;2023-05-16T03:08:26;12.20;99.90
7936;DHT22;4013;49.744;8.118;2023-05-16T03:10:53;12.20;99.90
7936;DHT22;4013;49.744;8.118;2023-05-16T03:13:20;12.20;99.90
7936;DHT22;4013;49.744;8.118;2023-05-16T03:15:47;12.20;99.90
7936;DHT22;4013;49.744;8.118;2023-05-16T03:18:14;12.20;99.90
7936;DHT22;4013;49.744;8.118;2023-05-16T03:20:41;12.30;99.90
7936;DHT22;4013;49.744;8.118;2023-05-16T03:23:10;12.30;99.90
7936;DHT22;4013;49.744;8.118;2023-05-16T03:25:37;12.20;99.90
7936;DHT22;4013;49.744;8.118;2023-05-16T03:28:04;12.20;99.90
7936;DHT22;4013;49.744;8.118;2023-05-16T03:30:32;12.20;99.90
7936;DHT22;4013;49.744;8.118;2023-05-16T03:32:59;12.20;99.90
7936;DHT22;4013;49.744;8.118;2023-05-16T03:35:26;12.10;99.90
7936;DHT22;4013;49.744;8.118;2023-05-16T03:37:53;12.00;99.90
7936;DHT22;4013;49.744;8.118;2023-05-16T03:40:21;11.90;99.90
7936;DHT22;4013;49.744;8.118;2023-05-16T03:42:48;12.00;99.90
7936;DHT22;4013;49.744;8.118;2023-05-16T03:45:15;12.10;99.90
7936;DHT22;4013;49.744;8.118;2023-05-16T03:47:42;12.00;99.90
7936;DHT22;4013;49.744;8.118;2023-05-16T03:50:09;12.00;99.90
7936;DHT22;4013;49.744;8.118;2023-05-16T03:52:37;12.00;99.90
7936;DHT22;4013;49.744;8.118;2023-05-16T03:55:04;12.10;99.90
7936;DHT22;4013;49.744;8.118;2023-05-16T03:57:33;12.10;99.90
7936;DHT22;4013;49.744;8.118;2023-05-16T04:00:00;12.00;99.90
7936;DHT22;4013;49.744;8.118;2023-05-16T04:02:28;12.00;99.90
7936;DHT22;4013;49.744;8.118;2023-05-16T04:04:55;12.00;99.90
7936;DHT22;4013;49.744;8.118;2023-05-16T04:07:22;12.00;99.90
7936;DHT22;4013;49.744;8.118;2023-05-16T04:09:50;12.00;99.90
7936;DHT22;4013;49.744;8.118;2023-05-16T04:12:17;12.00;99.90
7936;DHT22;4013;49.744;8.118;2023-05-16T04:14:45;12.00;99.90
7936;DHT22;4013;49.744;8.118;2023-05-16T04:17:12;12.00;99.90
7936;DHT22;4013;49.744;8.118;2023-05-16T04:19:39;12.00;99.90
7936;DHT22;4013;49.744;8.118;2023-05-16T04:22:06;12.00;99.90
7936;DHT22;4013;49.744;8.118;2023-05-16T04:24:33;12.10;99.90
7936;DHT22;4013;49.744;8.118;2023-05-16T04:27:00;12.10;99.90
7936;DHT22;4013;49.744;8.118;2023-05-16T04:29:27;12.00;99.90
7936;DHT22;4013;49.744;8.118;2023-05-16T04:31:55;12.00;99.90
7936;DHT22;4013;49.744;8.118;2023-05-16T04:34:22;11.90;99.90
7936;DHT22;4013;49.744;8.118;2023-05-16T04:36:52;11.90;99.90
7936;DHT22;4013;49.744;8.118;2023-05-16T04:39:19;11.90;99.90
7936;DHT22;4013;49.744;8.118;2023-05-16T04:41:46;11.90;99.90
7936;DHT22;4013;49.744;8.118;2023-05-16T04:44:13;12.00;99.90
7936;DHT22;4013;49.744;8.118;2023-05-16T04:46:40;12.00;99.90
7936;DHT22;4013;49.744;8.118;2023-05-16T04:49:08;12.00;99.90
7936;DHT22;4013;49.744;8.118;2023-05-16T04:51:36;12.00;99.90
7936;DHT22;4013;49.744;8.118;2023-05-16T04:54:03;11.90;99.90
7936;DHT22;4013;49.744;8.118;2023-05-16T04:56:30;12.00;99.90
7936;DHT22;4013;49.744;8.118;2023-05-16T04:58:57;12.10;99.90
7936;DHT22;4013;49.744;8.118;2023-05-16T05:01:24;12.10;99.90
7936;DHT22;4013;49.744;8.118;2023-05-16T05:03:51;12.10;99.90
7936;DHT22;4013;49.744;8.118;2023-05-16T05:06:19;12.10;99.90
7936;DHT22;4013;49.744;8.118;2023-05-16T05:08:47;12.20;99.90
7936;DHT22;4013;49.744;8.118;2023-05-16T05:11:14;12.20;99.90
7936;DHT22;4013;49.744;8.118;2023-05-16T05:13:41;12.10;99.90
7936;DHT22;4013;49.744;8.118;2023-05-16T05:16:08;12.20;99.90
7936;DHT22;4013;49.744;8.118;2023-05-16T05:18:35;12.20;99.90
7936;DHT22;4013;49.744;8.118;2023-05-16T05:21:02;12.20;99.90
7936;DHT22;4013;49.744;8.118;2023-05-16T05:23:30;12.30;99.90
7936;DHT22;4013;49.744;8.118;2023-05-16T05:25:59;12.30;99.90
7936;DHT22;4013;49.744;8.118;2023-05-16T05:28:26;12.30;99.90
7936;DHT22;4013;49.744;8.118;2023-05-16T05:30:53;12.30;99.90
7936;DHT22;4013;49.744;8.118;2023-05-16T05:33:25;12.20;99.90
7936;DHT22;4013;49.744;8.118;2023-05-16T05:35:52;12.10;99.90
7936;DHT22;4013;49.744;8.118;2023-05-16T05:38:20;12.10;99.90
7936;DHT22;4013;49.744;8.118;2023-05-16T05:40:48;12.20;99.90
7936;DHT22;4013;49.744;8.118;2023-05-16T05:43:15;12.20;99.90
7936;DHT22;4013;49.744;8.118;2023-05-16T05:45:43;12.30;99.90
7936;DHT22;4013;49.744;8.118;2023-05-16T05:48:10;12.30;99.90
7936;DHT22;4013;49.744;8.118;2023-05-16T05:50:38;12.40;99.90
7936;DHT22;4013;49.744;8.118;2023-05-16T05:53:05;12.40;99.90
7936;DHT22;4013;49.744;8.118;2023-05-16T05:55:32;12.40;99.90
7936;DHT22;4013;49.744;8.118;2023-05-16T05:58:01;12.40;99.90
7936;DHT22;4013;49.744;8.118;2023-05-16T06:00:28;12.40;99.90
7936;DHT22;4013;49.744;8.118;2023-05-16T06:02:54;12.50;99.90
7936;DHT22;4013;49.744;8.118;2023-05-16T06:05:21;12.50;99.90
7936;DHT22;4013;49.744;8.118;2023-05-16T06:07:49;12.50;99.90
7936;DHT22;4013;49.744;8.118;2023-05-16T06:10:16;12.50;99.90
7936;DHT22;4013;49.744;8.118;2023-05-16T06:12:43;12.50;99.90
7936;DHT22;4013;49.744;8.118;2023-05-16T06:15:12;12.50;99.90
7936;DHT22;4013;49.744;8.118;2023-05-16T06:17:39;12.50;99.90
7936;DHT22;4013;49.744;8.118;2023-05-16T06:20:07;12.50;99.90
7936;DHT22;4013;49.744;8.118;2023-05-16T06:22:34;12.60;99.90
7936;DHT22;4013;49.744;8.118;2023-05-16T06:25:01;12.50;99.90
7936;DHT22;4013;49.744;8.118;2023-05-16T06:27:28;12.40;99.90
7936;DHT22;4013;49.744;8.118;2023-05-16T06:29:55;12.50;99.90
7936;DHT22;4013;49.744;8.118;2023-05-16T06:32:23;12.50;99.90
7936;DHT22;4013;49.744;8.118;2023-05-16T06:34:50;12.50;99.90
7936;DHT22;4013;49.744;8.118;2023-05-16T06:37:17;12.60;99.90
7936;DHT22;4013;49.744;8.118;2023-05-16T06:39:44;12.60;99.90
7936;DHT22;4013;49.744;8.118;2023-05-16T06:42:11;12.60;99.90
7936;DHT22;4013;49.744;8.118;2023-05-16T06:44:38;12.50;99.90
7936;DHT22;4013;49.744;8.118;2023-05-16T06:47:05;12.50;99.90
7936;DHT22;4013;49.744;8.118;2023-05-16T06:49:34;12.50;99.90
7936;DHT22;4013;49.744;8.118;2023-05-16T06:52:01;12.50;99.90
7936;DHT22;4013;49.744;8.118;2023-05-16T06:54:28;12.50;99.90
7936;DHT22;4013;49.744;8.118;2023-05-16T06:56:55;12.50;99.90
7936;DHT22;4013;49.744;8.118;2023-05-16T06:59:22;12.40;99.90
7936;DHT22;4013;49.744;8.118;2023-05-16T07:01:49;12.40;99.90
7936;DHT22;4013;49.744;8.118;2023-05-16T07:04:16;12.40;99.90
7936;DHT22;4013;49.744;8.118;2023-05-16T07:06:44;12.40;99.90
7936;DHT22;4013;49.744;8.118;2023-05-16T07:09:11;12.30;99.90
7936;DHT22;4013;49.744;8.118;2023-05-16T07:11:38;12.30;99.90
7936;DHT22;4013;49.744;8.118;2023-05-16T07:14:05;12.30;99.90
7936;DHT22;4013;49.744;8.118;2023-05-16T07:16:32;12.30;99.90
7936;DHT22;4013;49.744;8.118;2023-05-16T07:18:59;12.30;99.90
7936;DHT22;4013;49.744;8.118;2023-05-16T07:21:26;12.40;99.90
7936;DHT22;4013;49.744;8.118;2023-05-16T07:23:55;12.50;99.90
7936;DHT22;4013;49.744;8.118;2023-05-16T07:26:22;12.40;99.90
7936;DHT22;4013;49.744;8.118;2023-05-16T07:28:49;12.30;99.90
7936;DHT22;4013;49.744;8.118;2023-05-16T07:31:16;12.40;99.90
7936;DHT22;4013;49.744;8.118;2023-05-16T07:33:44;12.30;99.90
7936;DHT22;4013;49.744;8.118;2023-05-16T07:36:11;12.20;99.90
7936;DHT22;4013;49.744;8.118;2023-05-16T07:38:38;12.20;99.90
7936;DHT22;4013;49.744;8.118;2023-05-16T07:41:07;12.10;99.90
7936;DHT22;4013;49.744;8.118;2023-05-16T07:43:34;12.20;99.90
7936;DHT22;4013;49.744;8.118;2023-05-16T07:46:01;12.20;99.90
7936;DHT22;4013;49.744;8.118;2023-05-16T07:48:28;12.10;99.90
7936;DHT22;4013;49.744;8.118;2023-05-16T07:50:55;12.20;99.90
7936;DHT22;4013;49.744;8.118;2023-05-16T07:53:22;12.10;99.90
7936;DHT22;4013;49.744;8.118;2023-05-16T07:55:49;12.10;99.90
7936;DHT22;4013;49.744;8.118;2023-05-16T07:58:17;12.00;99.90
7936;DHT22;4013;49.744;8.118;2023-05-16T08:00:44;12.00;99.90
7936;DHT22;4013;49.744;8.118;2023-05-16T08:03:11;12.10;99.90
7936;DHT22;4013;49.744;8.118;2023-05-16T08:05:38;12.00;99.90
7936;DHT22;4013;49.744;8.118;2023-05-16T08:08:05;12.00;99.90
7936;DHT22;4013;49.744;8.118;2023-05-16T08:10:32;12.00;99.90
7936;DHT22;4013;49.744;8.118;2023-05-16T08:12:59;12.00;99.90
7936;DHT22;4013;49.744;8.118;2023-05-16T08:15:27;12.00;99.90
7936;DHT22;4013;49.744;8.118;2023-05-16T08:17:56;11.90;99.90
7936;DHT22;4013;49.744;8.118;2023-05-16T08:20:23;12.00;99.90
7936;DHT22;4013;49.744;8.118;2023-05-16T08:22:51;12.00;99.90
7936;DHT22;4013;49.744;8.118;2023-05-16T08:25:18;11.90;99.90
7936;DHT22;4013;49.744;8.118;2023-05-16T08:27:45;11.90;99.90
7936;DHT22;4013;49.744;8.118;2023-05-16T08:30:13;11.90;99.90
7936;DHT22;4013;49.744;8.118;2023-05-16T08:32:41;11.90;99.90
7936;DHT22;4013;49.744;8.118;2023-05-16T08:35:08;11.80;99.90
7936;DHT22;4013;49.744;8.118;2023-05-16T08:37:36;11.70;99.90
7936;DHT22;4013;49.744;8.118;2023-05-16T08:40:05;11.70;99.90
7936;DHT22;4013;49.744;8.118;2023-05-16T08:42:33;11.70;99.90
7936;DHT22;4013;49.744;8.118;2023-05-16T08:45:00;11.80;99.90
7936;DHT22;4013;49.744;8.118;2023-05-16T08:47:30;11.80;99.90
7936;DHT22;4013;49.744;8.118;2023-05-16T08:50:01;11.70;99.90
7936;DHT22;4013;49.744;8.118;2023-05-16T08:52:30;11.70;99.90
7936;DHT22;4013;49.744;8.118;2023-05-16T08:55:01;11.70;99.90
7936;DHT22;4013;49.744;8.118;2023-05-16T08:57:31;11.50;99.90
7936;DHT22;4013;49.744;8.118;2023-05-16T08:59:59;11.60;99.90
7936;DHT22;4013;49.744;8.118;2023-05-16T09:02:26;11.50;99.90
7936;DHT22;4013;49.744;8.118;2023-05-16T09:04:55;11.60;99.90
7936;DHT22;4013;49.744;8.118;2023-05-16T09:07:25;11.60;99.90
7936;DHT22;4013;49.744;8.118;2023-05-16T09:09:52;11.60;99.90
7936;DHT22;4013;49.744;8.118;2023-05-16T09:12:19;11.60;99.90
7936;DHT22;4013;49.744;8.118;2023-05-16T09:14:46;11.60;99.90
7936;DHT22;4013;49.744;8.118;2023-05-16T09:17:14;11.60;99.90
7936;DHT22;4013;49.744;8.118;2023-05-16T09:19:42;11.60;99.90
7936;DHT22;4013;49.744;8.118;2023-05-16T09:22:11;11.60;99.90
7936;DHT22;4013;49.744;8.118;2023-05-16T09:24:40;11.50;99.90
7936;DHT22;4013;49.744;8.118;2023-05-16T09:27:08;11.40;99.90
7936;DHT22;4013;49.744;8.118;2023-05-16T09:29:35;11.30;99.90
7936;DHT22;4013;49.744;8.118;2023-05-16T09:32:09;11.30;99.90
7936;DHT22;4013;49.744;8.118;2023-05-16T09:34:42;11.40;99.90
7936;DHT22;4013;49.744;8.118;2023-05-16T09:37:10;11.30;99.90
7936;DHT22;4013;49.744;8.118;2023-05-16T09:39:45;11.30;99.90
7936;DHT22;4013;49.744;8.118;2023-05-16T09:42:12;11.30;99.90
7936;DHT22;4013;49.744;8.118;2023-05-16T09:44:40;11.30;99.90
7936;DHT22;4013;49.744;8.118;2023-05-16T09:47:07;11.40;99.90
7936;DHT22;4013;49.744;8.118;2023-05-16T09:49:36;11.50;99.90
7936;DHT22;4013;49.744;8.118;2023-05-16T09:52:04;11.50;99.90
7936;DHT22;4013;49.744;8.118;2023-05-16T09:54:32;11.60;99.90
7936;DHT22;4013;49.744;8.118;2023-05-16T09:57:01;11.60;99.90
7936;DHT22;4013;49.744;8.118;2023-05-16T09:59:28;11.60;99.90
7936;DHT22;4013;49.744;8.118;2023-05-16T10:01:57;11.60;99.90
7936;DHT22;4013;49.744;8.118;2023-05-16T10:04:25;11.50;99.90
7936;DHT22;4013;49.744;8.118;2023-05-16T10:06:54;11.50;99.90
7936;DHT22;4013;49.744;8.118;2023-05-16T10:09:23;11.50;99.90
7936;DHT22;4013;49.744;8.118;2023-05-16T10:11:51;11.50;99.90
7936;DHT22;4013;49.744;8.118;2023-05-16T10:14:20;11.60;99.90
7936;DHT22;4013;49.744;8.118;2023-05-16T10:16:47;11.70;99.90
7936;DHT22;4013;49.744;8.118;2023-05-16T10:19:16;11.70;99.90
7936;DHT22;4013;49.744;8.118;2023-05-16T10:21:47;11.70;99.90
7936;DHT22;4013;49.744;8.118;2023-05-16T10:24:20;11.70;99.90
7936;DHT22;4013;49.744;8.118;2023-05-16T10:26:50;11.80;99.90
7936;DHT22;4013;49.744;8.118;2023-05-16T10:29:19;11.70;99.90
7936;DHT22;4013;49.744;8.118;2023-05-16T10:31:47;11.80;99.90
7936;DHT22;4013;49.744;8.118;2023-05-16T10:34:15;11.80;99.90
7936;DHT22;4013;49.744;8.118;2023-05-16T10:36:43;11.80;99.90
7936;DHT22;4013;49.744;8.118;2023-05-16T10:39:11;11.90;99.90
7936;DHT22;4013;49.744;8.118;2023-05-16T10:41:40;11.90;99.90
7936;DHT22;4013;49.744;8.118;2023-05-16T10:44:12;11.80;99.90
7936;DHT22;4013;49.744;8.118;2023-05-16T10:46:42;11.90;99.90
7936;DHT22;4013;49.744;8.118;2023-05-16T10:49:26;12.10;99.90
7936;DHT22;4013;49.744;8.118;2023-05-16T10:52:06;11.90;99.90
7936;DHT22;4013;49.744;8.118;2023-05-16T10:54:35;11.90;99.90
7936;DHT22;4013;49.744;8.118;2023-05-16T10:57:08;11.90;99.90
7936;DHT22;4013;49.744;8.118;2023-05-16T10:59:40;11.90;99.90
7936;DHT22;4013;49.744;8.118;2023-05-16T11:02:24;11.80;99.90
7936;DHT22;4013;49.744;8.118;2023-05-16T11:04:52;11.90;99.90
7936;DHT22;4013;49.744;8.118;2023-05-16T11:07:21;11.90;99.90
7936;DHT22;4013;49.744;8.118;2023-05-16T11:10:03;11.90;99.90
7936;DHT22;4013;49.744;8.118;2023-05-16T11:12:43;11.90;99.90
7936;DHT22;4013;49.744;8.118;2023-05-16T11:15:18;12.00;99.90
7936;DHT22;4013;49.744;8.118;2023-05-16T11:17:47;12.10;99.90
7936;DHT22;4013;49.744;8.118;2023-05-16T11:20:32;12.20;99.90
7936;DHT22;4013;49.744;8.118;2023-05-16T11:23:22;12.10;99.90
7936;DHT22;4013;49.744;8.118;2023-05-16T11:25:54;12.10;99.90
7936;DHT22;4013;49.744;8.118;2023-05-16T11:28:23;12.10;99.90
7936;DHT22;4013;49.744;8.118;2023-05-16T11:30:52;12.10;99.90
7936;DHT22;4013;49.744;8.118;2023-05-16T11:33:23;12.20;99.90
7936;DHT22;4013;49.744;8.118;2023-05-16T11:36:14;12.30;99.90
7936;DHT22;4013;49.744;8.118;2023-05-16T11:38:41;12.20;99.90
7936;DHT22;4013;49.744;8.118;2023-05-16T11:41:08;12.20;99.90
7936;DHT22;4013;49.744;8.118;2023-05-16T11:43:37;12.20;99.90
7936;DHT22;4013;49.744;8.118;2023-05-16T11:46:04;12.20;99.90
7936;DHT22;4013;49.744;8.118;2023-05-16T11:48:34;12.00;99.90
7936;DHT22;4013;49.744;8.118;2023-05-16T11:51:01;12.20;99.90
7936;DHT22;4013;49.744;8.118;2023-05-16T11:53:28;12.30;99.90
7936;DHT22;4013;49.744;8.118;2023-05-16T11:55:55;12.40;99.90
7936;DHT22;4013;49.744;8.118;2023-05-16T11:58:24;12.40;99.90
7936;DHT22;4013;49.744;8.118;2023-05-16T12:00:52;12.40;99.90
7936;DHT22;4013;49.744;8.118;2023-05-16T12:03:20;12.60;99.90
7936;DHT22;4013;49.744;8.118;2023-05-16T12:05:54;12.80;99.90
7936;DHT22;4013;49.744;8.118;2023-05-16T12:08:21;13.10;99.90
7936;DHT22;4013;49.744;8.118;2023-05-16T12:10:49;13.30;99.90
7936;DHT22;4013;49.744;8.118;2023-05-16T12:13:17;13.50;99.90
7936;DHT22;4013;49.744;8.118;2023-05-16T12:15:45;13.80;99.90
7936;DHT22;4013;49.744;8.118;2023-05-16T12:18:12;13.80;99.90
7936;DHT22;4013;49.744;8.118;2023-05-16T12:20:40;13.90;99.90
7936;DHT22;4013;49.744;8.118;2023-05-16T12:23:11;14.20;99.90
7936;DHT22;4013;49.744;8.118;2023-05-16T12:25:43;14.30;99.90
7936;DHT22;4013;49.744;8.118;2023-05-16T12:28:12;14.50;99.90
7936;DHT22;4013;49.744;8.118;2023-05-16T12:30:40;14.60;99.90
7936;DHT22;4013;49.744;8.118;2023-05-16T12:33:08;14.80;99.90
7936;DHT22;4013;49.744;8.118;2023-05-16T12:35:38;14.90;99.90
7936;DHT22;4013;49.744;8.118;2023-05-16T12:38:05;15.00;99.90
7936;DHT22;4013;49.744;8.118;2023-05-16T12:40:35;15.10;99.90
7936;DHT22;4013;49.744;8.118;2023-05-16T12:43:04;15.20;99.90
7936;DHT22;4013;49.744;8.118;2023-05-16T12:45:32;15.30;99.90
7936;DHT22;4013;49.744;8.118;2023-05-16T12:48:03;15.40;99.90
7936;DHT22;4013;49.744;8.118;2023-05-16T12:50:32;15.30;99.90
7936;DHT22;4013;49.744;8.118;2023-05-16T12:52:59;15.10;99.90
7936;DHT22;4013;49.744;8.118;2023-05-16T12:55:26;15.10;99.90
7936;DHT22;4013;49.744;8.118;2023-05-16T12:57:55;15.20;99.90
7936;DHT22;4013;49.744;8.118;2023-05-16T13:00:23;15.30;99.90
7936;DHT22;4013;49.744;8.118;2023-05-16T13:02:50;15.40;99.90
7936;DHT22;4013;49.744;8.118;2023-05-16T13:05:17;15.50;99.90
7936;DHT22;4013;49.744;8.118;2023-05-16T13:07:46;15.30;99.90
7936;DHT22;4013;49.744;8.118;2023-05-16T13:10:16;15.50;99.90
7936;DHT22;4013;49.744;8.118;2023-05-16T13:12:43;15.60;99.90
7936;DHT22;4013;49.744;8.118;2023-05-16T13:15:12;15.50;99.90
7936;DHT22;4013;49.744;8.118;2023-05-16T13:17:41;15.30;99.90
7936;DHT22;4013;49.744;8.118;2023-05-16T13:20:10;15.20;99.90
7936;DHT22;4013;49.744;8.118;2023-05-16T13:22:39;15.30;99.90
7936;DHT22;4013;49.744;8.118;2023-05-16T13:25:07;15.30;99.50
7936;DHT22;4013;49.744;8.118;2023-05-16T13:27:35;15.30;99.90
7936;DHT22;4013;49.744;8.118;2023-05-16T13:30:02;15.30;98.60
7936;DHT22;4013;49.744;8.118;2023-05-16T13:32:31;15.10;97.90
7936;DHT22;4013;49.744;8.118;2023-05-16T13:34:58;15.10;98.60
7936;DHT22;4013;49.744;8.118;2023-05-16T13:37:25;15.10;97.00
7936;DHT22;4013;49.744;8.118;2023-05-16T13:39:52;15.40;97.40
7936;DHT22;4013;49.744;8.118;2023-05-16T13:42:20;16.00;94.70
7936;DHT22;4013;49.744;8.118;2023-05-16T13:44:47;16.10;99.90
7936;DHT22;4013;49.744;8.118;2023-05-16T13:47:15;16.10;99.90
7936;DHT22;4013;49.744;8.118;2023-05-16T13:49:43;16.00;99.90
7936;DHT22;4013;49.744;8.118;2023-05-16T13:52:10;16.10;98.50
7936;DHT22;4013;49.744;8.118;2023-05-16T13:54:37;16.20;99.90
7936;DHT22;4013;49.744;8.118;2023-05-16T13:57:06;16.40;99.90
7936;DHT22;4013;49.744;8.118;2023-05-16T13:59:33;16.30;96.40
7936;DHT22;4013;49.744;8.118;2023-05-16T14:02:00;15.90;95.10
7936;DHT22;4013;49.744;8.118;2023-05-16T14:04:27;15.80;95.00
7936;DHT22;4013;49.744;8.118;2023-05-16T14:06:55;15.90;93.20
7936;DHT22;4013;49.744;8.118;2023-05-16T14:09:22;15.80;92.60
7936;DHT22;4013;49.744;8.118;2023-05-16T14:11:49;15.70;92.10
7936;DHT22;4013;49.744;8.118;2023-05-16T14:14:16;15.50;93.30
7936;DHT22;4013;49.744;8.118;2023-05-16T14:16:43;15.50;93.80
7936;DHT22;4013;49.744;8.118;2023-05-16T14:19:10;15.90;94.00
7936;DHT22;4013;49.744;8.118;2023-05-16T14:21:37;16.30;93.70
7936;DHT22;4013;49.744;8.118;2023-05-16T14:24:06;16.60;94.40
7936;DHT22;4013;49.744;8.118;2023-05-16T14:26:33;16.80;96.50
7936;DHT22;4013;49.744;8.118;2023-05-16T14:29:00;16.70;88.70
7936;DHT22;4013;49.744;8.118;2023-05-16T14:31:29;16.50;87.20
7936;DHT22;4013;49.744;8.118;2023-05-16T14:33:57;16.30;90.40
7936;DHT22;4013;49.744;8.118;2023-05-16T14:36:24;16.10;91.30
7936;DHT22;4013;49.744;8.118;2023-05-16T14:38:51;16.00;90.20
7936;DHT22;4013;49.744;8.118;2023-05-16T14:41:19;15.70;86.40
7936;DHT22;4013;49.744;8.118;2023-05-16T14:43:47;15.50;88.90
7936;DHT22;4013;49.744;8.118;2023-05-16T14:46:14;15.40;90.50
7936;DHT22;4013;49.744;8.118;2023-05-16T14:48:41;15.30;90.60
7936;DHT22;4013;49.744;8.118;2023-05-16T14:51:08;15.50;91.10
7936;DHT22;4013;49.744;8.118;2023-05-16T14:53:36;15.70;91.90
7936;DHT22;4013;49.744;8.118;2023-05-16T14:56:03;15.60;91.00
7936;DHT22;4013;49.744;8.118;2023-05-16T14:58:32;15.60;84.00
7936;DHT22;4013;49.744;8.118;2023-05-16T15:00:59;15.40;87.40
7936;DHT22;4013;49.744;8.118;2023-05-16T15:03:26;15.40;90.20
7936;DHT22;4013;49.744;8.118;2023-05-16T15:05:53;15.40;91.80
7936;DHT22;4013;49.744;8.118;2023-05-16T15:08:20;15.50;91.90
7936;DHT22;4013;49.744;8.118;2023-05-16T15:10:49;15.60;90.40
7936;DHT22;4013;49.744;8.118;2023-05-16T15:13:16;15.80;90.30
7936;DHT22;4013;49.744;8.118;2023-05-16T15:15:45;15.80;90.20
7936;DHT22;4013;49.744;8.118;2023-05-16T15:18:12;15.80;90.70
7936;DHT22;4013;49.744;8.118;2023-05-16T15:20:39;15.80;88.10
7936;DHT22;4013;49.744;8.118;2023-05-16T15:23:06;16.10;87.60
7936;DHT22;4013;49.744;8.118;2023-05-16T15:25:33;16.20;85.60
7936;DHT22;4013;49.744;8.118;2023-05-16T15:28:00;16.10;87.10
7936;DHT22;4013;49.744;8.118;2023-05-16T15:30:27;16.00;89.20
7936;DHT22;4013;49.744;8.118;2023-05-16T15:32:55;15.80;87.90
7936;DHT22;4013;49.744;8.118;2023-05-16T15:35:22;15.60;88.70
7936;DHT22;4013;49.744;8.118;2023-05-16T15:37:49;15.40;89.90
7936;DHT22;4013;49.744;8.118;2023-05-16T15:40:17;15.30;91.10
7936;DHT22;4013;49.744;8.118;2023-05-16T15:42:44;15.20;90.60
7936;DHT22;4013;49.744;8.118;2023-05-16T15:45:11;15.20;91.00
7936;DHT22;4013;49.744;8.118;2023-05-16T15:47:38;15.30;90.80
7936;DHT22;4013;49.744;8.118;2023-05-16T15:50:09;15.50;91.40
7936;DHT22;4013;49.744;8.118;2023-05-16T15:52:37;15.50;82.50
7936;DHT22;4013;49.744;8.118;2023-05-16T15:55:06;15.60;80.00
7936;DHT22;4013;49.744;8.118;2023-05-16T15:57:33;15.60;82.50
7936;DHT22;4013;49.744;8.118;2023-05-16T16:00:00;15.60;81.00
7936;DHT22;4013;49.744;8.118;2023-05-16T16:02:27;15.50;82.70
7936;DHT22;4013;49.744;8.118;2023-05-16T16:04:54;15.40;83.10
7936;DHT22;4013;49.744;8.118;2023-05-16T16:07:22;15.30;82.40
7936;DHT22;4013;49.744;8.118;2023-05-16T16:09:50;15.30;80.80